Athens, New York
Current Conditions -  °F | °C
As of 3:23 PM on Monday 26 Jan 2015 (Local Time) from KPSF Reporting Station
Light Snow Light Snow  
Wind Chill:   Ceiling: 2600
Heat Index: 18°   Visibility: 3mi
Dew Point: 11°   Wind: 12mph
Humidity: 74%   Direction: 50°NE
Pressure: 29.91"   Gusts: NA
Location:  42.26°N, 73.81°W
Report Text: KPSF 262023Z AUTO 05010KT 3SM -SN BKN026 OVC035 M08/M12 A2991 RMK AO2 P0000 T10781117
Loading
Personal Weather Stations






























Interactive Weather Map New forecast layout! Learn more

10-Day Weather Forecast

Advertisements
Track Severe Weather on mobile